In Rescue
 
Open Full Screen Window  High Contrast Mode
Wind Gusting 00 knots
11
May 25, 2022 8:14 PM CDT
Present Weather: Light Rain
Weather Information
Wind Direction
  020 °
Wind Speed
  11 kt (13 mph)
Wind Gust
  00 kt (0 mph)
Altimeter
29.79 in
Visibility
5 SM
Temperature
11° C
52° F
Dewpoint
11° C
52° F
Humidity
100%
1hr Rain Fall
00.00 in.
24hr Rain Fall
00.30 in.
Sky Condition
Overcast @ 700 ft
IFR

METAR KAEL 260114Z AUTO 02011KT 5SM -RA OVC007 11/11 A2979 RMK AO2

FAA Disclaimer: The data displayed is for advisory purposes only and is not to be used for flight planning or operations.